Time;durP1;ratioP1;P1;durP2;ratioP2;P2;SDS_P1;SDS_P2;PMS_P1;PMS_P2;Temp;Humidity;BMP_temperature;BMP_pressure;BME280_temperature;BME280_humidity;BME280_pressure;Samples;Min_cycle;Max_cycle;Signal;HPM_P1;HPM_P2
2021/08/13 00:01:36;;;;;;;4.15;3.10;;;;;;;11.88;76.01;100245.96;1733437;81;20921;-66
2021/08/13 00:04:03;;;;;;;3.50;3.20;;;;;;;11.83;76.11;100252.20;1701680;82;21464;-65
2021/08/13 00:06:29;;;;;;;4.58;3.08;;;;;;;11.79;76.20;100252.39;1727857;81;20875;-65
2021/08/13 00:08:56;;;;;;;4.25;2.83;;;;;;;11.75;76.19;100256.91;1697910;83;21284;-65
2021/08/13 00:11:22;;;;;;;4.87;3.43;;;;;;;11.72;76.21;100257.52;1722211;81;20928;-65
2021/08/13 00:13:49;;;;;;;6.25;3.30;;;;;;;11.70;76.32;100265.41;1717502;82;20883;-66
2021/08/13 00:16:16;;;;;;;3.90;3.13;;;;;;;11.69;76.36;100259.80;1725386;81;20944;-65
2021/08/13 00:18:42;;;;;;;3.83;3.00;;;;;;;11.67;76.46;100264.23;1717960;81;20972;-65
2021/08/13 00:21:10;;;;;;;4.42;3.10;;;;;;;11.66;76.47;100262.55;1720364;82;21849;-66
2021/08/13 00:23:37;;;;;;;3.80;2.90;;;;;;;11.63;76.58;100262.69;1717413;82;20910;-65
2021/08/13 00:26:03;;;;;;;10.05;3.62;;;;;;;11.60;76.73;100254.97;1712056;82;21090;-64
2021/08/13 00:28:30;;;;;;;5.65;3.10;;;;;;;11.56;76.65;100263.85;1701073;83;21501;-65
2021/08/13 00:30:57;;;;;;;4.80;3.35;;;;;;;11.51;76.67;100261.88;1718183;82;22248;-65
2021/08/13 00:33:23;;;;;;;7.60;3.23;;;;;;;11.46;76.65;100249.02;1697645;83;21110;-65
2021/08/13 00:35:50;;;;;;;4.95;3.20;;;;;;;11.46;76.65;100249.02;1716339;81;21415;-65
2021/08/13 00:38:16;;;;;;;5.17;3.27;;;;;;;11.41;76.84;100253.13;1696187;83;21018;-65
2021/08/13 00:40:43;;;;;;;7.03;3.58;;;;;;;11.37;76.96;100256.80;1720353;81;21492;-65
2021/08/13 00:43:09;;;;;;;4.72;4.03;;;;;;;11.37;77.07;100256.80;1690629;84;20942;-65
2021/08/13 00:45:36;;;;;;;6.12;3.65;;;;;;;11.38;77.25;100255.88;1695733;83;21057;-64
2021/08/13 00:48:04;;;;;;;5.75;3.67;;;;;;;11.37;77.28;100254.19;1719905;82;20921;-65
2021/08/13 00:50:30;;;;;;;4.15;3.17;;;;;;;11.34;77.30;100253.44;1719971;81;20936;-65
2021/08/13 00:52:59;;;;;;;4.37;3.00;;;;;;;11.33;77.33;100254.37;1715423;81;20983;-65
2021/08/13 00:55:25;;;;;;;5.12;3.75;;;;;;;11.32;77.51;100253.53;1696263;83;21136;-65
2021/08/13 00:57:53;;;;;;;7.23;3.50;;;;;;;11.35;77.69;100250.78;1691807;84;21021;-65
2021/08/13 01:00:19;;;;;;;4.42;3.62;;;;;;;11.39;77.66;100249.72;1697327;83;20919;-65
2021/08/13 01:02:46;;;;;;;5.00;2.93;;;;;;;11.37;77.55;100251.58;1696896;83;20972;-65
2021/08/13 01:05:14;;;;;;;6.40;3.60;;;;;;;11.36;77.55;100242.01;1722440;81;21666;-65
2021/08/13 01:07:40;;;;;;;3.15;2.85;;;;;;;11.35;77.68;100246.86;1728844;81;21020;-65
2021/08/13 01:10:08;;;;;;;7.65;2.90;;;;;;;11.33;77.70;100248.67;1728880;81;21101;-65
2021/08/13 01:13:01;;;;;;;12.95;3.47;;;;;;;11.31;77.65;100251.80;1719767;81;20954;-65
2021/08/13 01:15:31;;;;;;;4.50;2.75;;;;;;;11.28;77.66;100254.55;1720358;81;20919;-65
2021/08/13 01:18:05;;;;;;;3.40;2.40;;;;;;;11.25;77.63;100252.06;1720250;81;20939;-65
2021/08/13 01:20:58;;;;;;;5.10;2.75;;;;;;;11.23;77.73;100253.05;1710397;82;21499;-65
2021/08/13 01:23:50;;;;;;;3.20;2.60;;;;;;;11.22;77.67;100253.50;1704115;82;21318;-65
2021/08/13 01:26:19;;;;;;;3.12;2.77;;;;;;;11.18;77.75;100266.32;1686366;83;21524;-65
2021/08/13 01:28:57;;;;;;;5.20;3.10;;;;;;;11.14;77.75;100262.11;1710664;82;20926;-65
2021/08/13 01:31:25;;;;;;;3.30;2.42;;;;;;;11.10;77.73;100255.33;1720471;81;21556;-65
2021/08/13 01:33:58;;;;;;;2.98;2.67;;;;;;;11.05;77.75;100255.97;1703646;82;20962;-65
2021/08/13 01:36:29;;;;;;;3.37;2.62;;;;;;;11.00;77.89;100250.91;1725399;81;21850;-65
2021/08/13 01:39:02;;;;;;;4.90;3.75;;;;;;;11.01;78.01;100247.84;1703937;82;20952;-65
2021/08/13 01:41:35;;;;;;;4.67;3.10;;;;;;;11.02;78.06;100253.48;1704271;82;21619;-65
2021/08/13 01:44:05;;;;;;;5.25;3.20;;;;;;;11.00;78.01;100246.16;1706388;83;21032;-66
2021/08/13 01:46:32;;;;;;;4.78;3.30;;;;;;;10.95;78.06;100239.36;1729384;81;20882;-65
2021/08/13 01:49:01;;;;;;;5.97;3.98;;;;;;;10.88;78.12;100240.51;1732092;81;21062;-65
2021/08/13 01:51:29;;;;;;;4.05;3.05;;;;;;;10.86;78.22;100238.41;1726186;81;20982;-65
2021/08/13 01:53:56;;;;;;;5.42;3.72;;;;;;;10.84;78.35;100243.30;1707548;82;21464;-65
2021/08/13 01:56:26;;;;;;;5.83;3.98;;;;;;;10.85;78.42;100240.64;1703738;82;20933;-65
2021/08/13 01:58:52;;;;;;;4.90;3.00;;;;;;;10.87;78.54;100238.82;1718401;81;20922;-65
2021/08/13 02:01:20;;;;;;;5.10;3.40;;;;;;;10.87;78.48;100236.20;1724170;81;21058;-65
2021/08/13 02:03:47;;;;;;;5.08;4.15;;;;;;;10.86;78.54;100237.09;1723545;81;20924;-64
2021/08/13 02:06:13;;;;;;;4.58;3.40;;;;;;;10.85;78.47;100236.72;1720296;81;20880;-65
2021/08/13 02:08:42;;;;;;;3.95;3.55;;;;;;;10.81;78.49;100231.23;1734581;81;20931;-65
2021/08/13 02:11:09;;;;;;;10.32;3.15;;;;;;;10.80;78.58;100229.52;1715969;81;20922;-65
2021/08/13 02:13:37;;;;;;;10.00;4.97;;;;;;;10.78;78.63;100228.72;1699808;83;21008;-65
2021/08/13 02:16:14;;;;;;;9.50;3.27;;;;;;;10.77;78.69;100222.27;1695535;83;20959;-65
2021/08/13 02:18:49;;;;;;;5.50;2.60;;;;;;;10.72;78.70;100223.75;1694584;83;21088;-64
2021/08/13 02:21:17;;;;;;;5.35;3.77;;;;;;;10.69;78.73;100229.09;1696686;82;20926;-65
2021/08/13 02:23:44;;;;;;;5.47;3.47;;;;;;;10.61;78.65;100225.47;1690508;84;20982;-65
2021/08/13 02:26:10;;;;;;;5.90;3.47;;;;;;;10.58;78.87;100227.36;1698856;82;21500;-65
2021/08/13 02:28:37;;;;;;;3.08;2.80;;;;;;;10.60;79.02;100232.08;1704653;83;20909;-65
2021/08/13 02:31:04;;;;;;;4.00;3.02;;;;;;;10.62;79.07;100228.95;1693522;83;20961;-65
2021/08/13 02:33:30;;;;;;;7.30;3.02;;;;;;;10.64;79.20;100233.64;1698756;82;20959;-65
2021/08/13 02:36:09;;;;;;;5.13;2.83;;;;;;;10.65;79.18;100232.75;1695823;83;20946;-65
2021/08/13 02:38:56;;;;;;;7.87;3.75;;;;;;;10.64;79.18;100233.64;1689451;83;22035;-65
2021/08/13 02:41:26;;;;;;;3.33;3.00;;;;;;;10.62;79.11;100230.27;1696160;83;20958;-64
2021/08/13 02:43:58;;;;;;;4.03;2.58;;;;;;;10.58;79.08;100236.50;1695792;83;21456;-65
2021/08/13 02:46:30;;;;;;;5.87;2.90;;;;;;;10.55;79.11;100231.40;1696242;83;20958;-65
2021/08/13 02:48:59;;;;;;;4.35;3.08;;;;;;;10.52;79.18;100234.52;1701105;82;20903;-65
2021/08/13 02:51:30;;;;;;;6.35;3.25;;;;;;;10.56;79.21;100235.70;1697088;83;21050;-65
2021/08/13 02:53:57;;;;;;;4.97;3.08;;;;;;;10.57;79.12;100229.59;1694632;83;20962;-65
2021/08/13 02:56:29;;;;;;;3.13;2.30;;;;;;;10.58;79.19;100233.89;1695908;83;20955;-65
2021/08/13 02:59:02;;;;;;;8.18;3.25;;;;;;;10.58;79.26;100232.58;1695862;83;20921;-64
2021/08/13 03:01:33;;;;;;;3.08;2.45;;;;;;;10.58;79.33;100235.20;1697744;83;21484;-65
2021/08/13 03:04:02;;;;;;;6.92;3.10;;;;;;;10.63;79.46;100229.34;1696711;83;21986;-64
2021/08/13 03:06:35;;;;;;;12.60;2.80;;;;;;;10.68;79.47;100228.70;1696927;82;20958;-65
2021/08/13 03:09:02;;;;;;;5.75;2.50;;;;;;;10.68;79.33;100228.70;1708202;82;20972;-65
2021/08/13 03:11:31;;;;;;;4.40;2.77;;;;;;;10.67;79.43;100229.60;1709076;82;21523;-65
2021/08/13 03:13:59;;;;;;;6.25;2.90;;;;;;;10.67;79.41;100233.52;1709701;82;21020;-65
2021/08/13 03:16:25;;;;;;;;;;;;;;;10.65;79.45;100230.14;1709213;82;21045;-65
2021/08/13 03:18:52;;;;;;;7.58;3.12;;;;;;;10.65;79.57;100232.75;1707999;82;20118;-65
2021/08/13 03:21:19;;;;;;;18.73;3.50;;;;;;;10.65;79.56;100232.75;1681727;83;20924;-65
2021/08/13 03:23:46;;;;;;;5.75;2.70;;;;;;;10.68;79.75;100229.55;1701661;82;20914;-65
2021/08/13 03:26:14;;;;;;;5.67;2.70;;;;;;;10.73;79.77;100233.30;1708694;82;21385;-65
2021/08/13 03:28:40;;;;;;;5.95;2.98;;;;;;;10.80;79.89;100237.35;1706471;82;21041;-65
2021/08/13 03:31:07;;;;;;;12.15;2.83;;;;;;;10.90;79.89;100230.86;1703455;82;20958;-65
2021/08/13 03:33:35;;;;;;;7.90;3.12;;;;;;;11.02;79.87;100236.50;1708739;82;20938;-65
2021/08/13 03:36:02;;;;;;;13.83;3.30;;;;;;;11.10;79.62;100230.04;1713413;82;21440;-65
2021/08/13 03:38:29;;;;;;;11.38;3.95;;;;;;;11.05;79.33;100238.98;1701082;82;20982;-64
2021/08/13 03:40:55;;;;;;;15.95;4.53;;;;;;;11.06;79.38;100240.67;1701708;82;21941;-65
2021/08/13 03:43:22;;;;;;;20.68;4.35;;;;;;;11.25;79.70;100235.08;1711613;82;21495;-65
2021/08/13 03:45:50;;;;;;;10.93;4.03;;;;;;;11.73;79.90;100227.34;1707482;82;21953;-65
2021/08/13 03:48:17;;;;;;;8.43;3.75;;;;;;;12.29;79.84;100227.92;1707887;82;20914;-65
2021/08/13 03:50:43;;;;;;;8.75;2.98;;;;;;;12.84;79.53;100224.91;1708318;82;20971;-65
2021/08/13 03:53:10;;;;;;;7.67;3.60;;;;;;;13.10;78.89;100221.84;1707646;82;21716;-65
2021/08/13 03:55:36;;;;;;;5.55;3.45;;;;;;;13.25;79.00;100222.00;1710470;82;21464;-65
2021/08/13 03:58:03;;;;;;;6.97;3.23;;;;;;;13.79;79.12;100222.77;1702860;82;21470;-65
2021/08/13 04:00:29;;;;;;;18.47;4.40;;;;;;;13.80;78.24;100216.57;1710948;82;20916;-65
2021/08/13 04:02:56;;;;;;;17.77;4.30;;;;;;;13.66;78.26;100209.42;1709402;82;20946;-65
2021/08/13 04:05:23;;;;;;;13.98;3.80;;;;;;;13.62;78.30;100216.61;1704275;82;21180;-65
2021/08/13 04:07:49;;;;;;;9.75;3.30;;;;;;;13.90;79.00;100219.11;1709278;82;20913;-65
2021/08/13 04:10:16;;;;;;;57.97;6.37;;;;;;;14.70;79.19;100216.07;1707879;82;21583;-65
2021/08/13 04:12:42;;;;;;;30.57;4.50;;;;;;;15.33;78.38;100213.77;1706124;82;21252;-65
2021/08/13 04:15:10;;;;;;;16.60;4.13;;;;;;;15.89;78.00;100209.05;1704832;82;20940;-65
2021/08/13 04:17:36;;;;;;;20.85;4.12;;;;;;;16.24;77.13;100210.42;1707610;82;21245;-65
2021/08/13 04:20:03;;;;;;;23.18;4.20;;;;;;;16.52;77.45;100213.47;1708781;82;20966;-65
2021/08/13 04:22:30;;;;;;;;;;;;;;;17.27;77.45;100204.61;1710202;82;20979;-65
2021/08/13 04:24:56;;;;;;;18.75;4.50;;;;;;;17.95;76.60;100206.12;1714406;82;20421;-65
2021/08/13 04:27:23;;;;;;;35.03;5.45;;;;;;;18.58;76.19;100195.50;1714183;82;21567;-65
2021/08/13 04:29:51;;;;;;;29.67;5.03;;;;;;;18.66;75.48;100195.79;1707553;82;21284;-65
2021/08/13 04:32:18;;;;;;;52.05;7.05;;;;;;;19.13;75.68;100186.98;1709865;82;21010;-66
2021/08/13 04:34:44;;;;;;;39.35;5.58;;;;;;;19.81;75.65;100194.58;1705974;82;20962;-65
2021/08/13 04:37:11;;;;;;;32.67;5.90;;;;;;;20.43;75.09;100195.00;1705443;82;20914;-66
2021/08/13 04:39:37;;;;;;;62.75;7.62;;;;;;;20.98;74.57;100193.17;1708468;82;20985;-65
2021/08/13 04:42:04;;;;;;;38.60;4.60;;;;;;;21.44;73.77;100193.30;1705666;82;21456;-65
2021/08/13 04:44:31;;;;;;;38.00;3.92;;;;;;;21.73;73.37;100195.25;1709084;82;20902;-65
2021/08/13 04:46:59;;;;;;;30.90;4.17;;;;;;;21.89;73.35;100187.64;1709572;82;20922;-65
2021/08/13 04:49:26;;;;;;;24.95;3.35;;;;;;;22.35;73.46;100191.61;1711431;82;20886;-65
2021/08/13 04:51:53;;;;;;;28.38;4.47;;;;;;;22.94;73.14;100192.00;1710621;82;20942;-65
2021/08/13 04:54:19;;;;;;;;;;;;;;;22.88;71.95;100188.58;1716797;81;21064;-65
2021/08/13 04:56:45;;;;;;;21.90;3.95;;;;;;;22.62;71.93;100186.09;1708831;82;20451;-65
2021/08/13 04:59:12;;;;;;;40.08;6.17;;;;;;;23.17;72.40;100179.75;1707058;82;28098;-66
2021/08/13 05:01:39;;;;;;;34.98;5.28;;;;;;;23.74;72.02;100177.94;1706490;82;20886;-66
2021/08/13 05:04:07;;;;;;;24.77;3.98;;;;;;;24.44;71.91;100174.80;1705594;82;20937;-66
2021/08/13 05:06:34;;;;;;;37.55;5.33;;;;;;;25.18;71.88;100171.83;1707162;82;21059;-66
2021/08/13 05:09:00;;;;;;;29.45;4.72;;;;;;;26.03;71.65;100174.66;1705033;82;20914;-66
2021/08/13 05:11:27;;;;;;;;;;;;;;;26.82;71.00;100172.51;1703915;82;20956;-66
2021/08/13 05:13:53;;;;;;;32.08;4.72;;;;;;;27.11;68.48;100164.45;1706892;82;20110;-66
2021/08/13 05:16:19;;;;;;;;;;;;;;;27.21;68.68;100166.50;1713182;82;20930;-66
2021/08/13 05:18:46;;;;;;;49.30;6.35;;;;;;;27.24;67.05;100163.48;1707827;82;21905;-66
2021/08/13 05:21:13;;;;;;;25.35;4.65;;;;;;;27.28;67.59;100163.97;1709057;82;20938;-66
2021/08/13 05:23:40;;;;;;;26.05;4.40;;;;;;;27.31;66.72;100167.17;1707865;82;20953;-66
2021/08/13 05:26:06;;;;;;;25.48;4.10;;;;;;;27.26;65.84;100176.22;1710885;82;20933;-66
2021/08/13 05:28:33;;;;;;;17.42;3.20;;;;;;;27.35;65.84;100176.53;1704471;82;21005;-66
2021/08/13 05:30:59;;;;;;;22.45;3.27;;;;;;;27.64;65.30;100181.83;1712428;81;21117;-66
2021/08/13 05:33:26;;;;;;;17.67;3.50;;;;;;;27.92;65.32;100172.04;1705405;82;20934;-66
2021/08/13 05:35:53;;;;;;;34.35;4.62;;;;;;;27.95;64.17;100171.69;1713080;82;20952;-65
2021/08/13 05:38:19;;;;;;;25.75;4.03;;;;;;;27.74;63.89;100181.13;1710331;82;21463;-66
2021/08/13 05:40:46;;;;;;;32.53;3.90;;;;;;;27.43;62.83;100170.33;1705563;82;20969;-66
2021/08/13 05:43:12;;;;;;;43.33;5.97;;;;;;;27.00;62.85;100178.55;1705588;82;21060;-66
2021/08/13 05:45:39;;;;;;;21.35;3.55;;;;;;;27.11;62.94;100176.52;1706910;82;20985;-66
2021/08/13 05:48:06;;;;;;;12.07;2.35;;;;;;;27.39;62.60;100173.86;1707063;82;20917;-66
2021/08/13 05:50:33;;;;;;;4.72;2.15;;;;;;;27.65;62.45;100179.50;1705803;82;20978;-66
2021/08/13 05:52:59;;;;;;;9.53;2.83;;;;;;;28.12;62.29;100176.00;1707405;82;20889;-66
2021/08/13 05:55:26;;;;;;;6.40;2.72;;;;;;;28.37;61.41;100175.84;1707101;82;21105;-66
2021/08/13 05:57:53;;;;;;;15.60;3.05;;;;;;;28.29;60.39;100173.55;1705036;82;21519;-66
2021/08/13 06:00:20;;;;;;;13.20;2.95;;;;;;;28.19;60.44;100174.27;1684878;83;21443;-66
2021/08/13 06:02:58;;;;;;;12.05;2.42;;;;;;;28.22;60.07;100168.54;1706874;82;20917;-66
2021/08/13 06:05:25;;;;;;;12.43;3.10;;;;;;;28.34;59.91;100172.52;1707744;82;20985;-66
2021/08/13 06:07:52;;;;;;;7.28;2.90;;;;;;;28.46;59.27;100168.95;1704470;82;21051;-66
2021/08/13 06:10:20;;;;;;;15.20;3.02;;;;;;;28.47;59.27;100169.78;1707475;82;20906;-66
2021/08/13 06:12:47;;;;;;;19.80;3.02;;;;;;;28.76;59.31;100176.63;1708460;82;20914;-66
2021/08/13 06:15:15;;;;;;;9.03;2.30;;;;;;;29.03;58.50;100179.80;1706317;82;20894;-66
2021/08/13 06:17:42;;;;;;;5.65;2.22;;;;;;;29.05;58.08;100169.70;1706606;82;20939;-66
2021/08/13 06:20:12;;;;;;;10.35;2.60;;;;;;;29.19;57.94;100176.97;1704347;83;21776;-67
2021/08/13 06:22:39;;;;;;;3.72;1.82;;;;;;;29.58;58.07;100177.24;1708498;82;20982;-68
2021/08/13 06:25:06;;;;;;;11.40;2.00;;;;;;;29.76;56.98;100172.02;1708984;82;20938;-68
2021/08/13 06:27:34;;;;;;;3.98;1.80;;;;;;;29.76;56.69;100172.02;1711263;82;21470;-68
2021/08/13 06:30:00;;;;;;;7.00;1.70;;;;;;;29.95;56.37;100170.62;1702462;82;21438;-68
2021/08/13 06:32:27;;;;;;;7.20;1.72;;;;;;;29.96;56.20;100172.28;1707996;82;21058;-68
2021/08/13 06:34:54;;;;;;;8.00;2.35;;;;;;;30.10;55.82;100176.28;1705210;82;20894;-68
2021/08/13 06:37:20;;;;;;;8.55;1.92;;;;;;;30.11;55.67;100174.45;1737291;81;20863;-68
2021/08/13 06:39:47;;;;;;;6.05;1.67;;;;;;;30.31;55.65;100170.67;1704333;82;20930;-68
2021/08/13 06:42:14;;;;;;;7.45;2.12;;;;;;;30.57;55.27;100173.33;1735739;81;20988;-68
2021/08/13 06:44:40;;;;;;;6.25;1.90;;;;;;;30.70;54.39;100164.86;1737158;81;21273;-67
2021/08/13 06:47:07;;;;;;;12.80;1.98;;;;;;;30.72;53.87;100161.95;1736400;81;20910;-68
2021/08/13 06:49:34;;;;;;;6.37;1.95;;;;;;;30.55;53.61;100161.38;1729262;81;20941;-67
2021/08/13 06:52:02;;;;;;;6.33;1.80;;;;;;;30.62;53.32;100161.47;1731984;81;20912;-67
2021/08/13 06:54:28;;;;;;;17.15;2.45;;;;;;;30.55;53.02;100167.59;1742059;81;20945;-67
2021/08/13 06:56:55;;;;;;;19.32;2.65;;;;;;;30.66;52.95;100165.43;1736182;81;21041;-67
2021/08/13 06:59:22;;;;;;;50.35;4.95;;;;;;;30.69;52.16;100165.04;1738813;80;21350;-68
2021/08/13 07:01:48;;;;;;;4.72;2.20;;;;;;;30.81;52.53;100163.55;1732915;81;20982;-68
2021/08/13 07:04:15;;;;;;;3.70;1.70;;;;;;;30.96;51.76;100163.45;1702130;82;20921;-68
2021/08/13 07:06:42;;;;;;;3.98;1.37;;;;;;;30.95;51.80;100165.33;1736424;81;21468;-67
2021/08/13 07:09:09;;;;;;;4.25;1.55;;;;;;;31.12;51.26;100166.40;1738634;81;21046;-67
2021/08/13 07:11:35;;;;;;;3.98;1.65;;;;;;;31.15;51.27;100170.05;1702299;82;21424;-68
2021/08/13 07:14:02;;;;;;;2.65;1.72;;;;;;;31.14;50.79;100167.02;1738289;81;20892;-69
2021/08/13 07:16:30;;;;;;;2.50;1.45;;;;;;;30.97;49.98;100167.81;1738676;81;20959;-68
2021/08/13 07:18:56;;;;;;;3.40;1.60;;;;;;;30.94;50.33;100166.33;1735379;81;20929;-68
2021/08/13 07:21:23;;;;;;;6.58;1.77;;;;;;;30.78;49.27;100170.61;1736055;81;21094;-68
2021/08/13 07:23:50;;;;;;;8.05;1.87;;;;;;;30.61;49.17;100178.64;1732075;81;20908;-67
2021/08/13 07:26:16;;;;;;;3.83;1.27;;;;;;;30.47;49.53;100178.53;1734899;81;20908;-69
2021/08/13 07:28:43;;;;;;;8.65;1.35;;;;;;;30.58;51.79;100185.77;1735134;81;21455;-67
2021/08/13 07:31:09;;;;;;;9.20;2.05;;;;;;;30.31;48.58;100178.76;1744664;81;20957;-67
2021/08/13 07:33:36;;;;;;;59.00;4.12;;;;;;;29.81;48.58;100183.07;1705363;82;21920;-67
2021/08/13 07:36:03;;;;;;;16.70;2.60;;;;;;;29.50;48.44;100180.02;1707195;82;21349;-66
2021/08/13 07:38:33;;;;;;;4.42;1.40;;;;;;;29.27;48.35;100177.88;1728750;81;20914;-67
2021/08/13 07:40:58;;;;;;;6.95;1.55;;;;;;;29.15;48.08;100185.56;1732992;81;21448;-66
2021/08/13 07:43:25;;;;;;;29.98;2.12;;;;;;;28.88;48.03;100180.24;1725840;81;21024;-67
2021/08/13 07:45:52;;;;;;;5.45;1.70;;;;;;;28.82;48.08;100180.45;1727377;81;22530;-67
2021/08/13 07:48:19;;;;;;;6.55;2.05;;;;;;;28.68;47.30;100179.37;1732358;81;20946;-67
2021/08/13 07:50:45;;;;;;;;;;;;;;;28.45;47.49;100179.85;1728544;81;20890;-67
2021/08/13 07:53:12;;;;;;;23.95;2.67;;;;;;;28.26;47.12;100184.64;1725638;81;20405;-68
2021/08/13 07:55:39;;;;;;;5.35;1.70;;;;;;;28.17;47.11;100184.33;1731331;81;20885;-67
2021/08/13 07:58:06;;;;;;;2.85;1.82;;;;;;;28.12;47.21;100184.05;1727612;81;21011;-66
2021/08/13 08:00:33;;;;;;;5.55;1.87;;;;;;;28.10;46.86;100182.03;1724870;81;21425;-66
2021/08/13 08:02:59;;;;;;;;;;;;;;;27.95;46.86;100179.73;1732298;81;21582;-66
2021/08/13 08:05:25;;;;;;;;;;;;;;;27.87;46.40;100181.47;1737758;81;20100;-66
2021/08/13 08:07:52;;;;;;;3.60;1.87;;;;;;;27.92;46.81;100175.55;1729625;81;20099;-66
2021/08/13 08:10:20;;;;;;;4.28;2.33;;;;;;;27.94;46.55;100172.71;1724502;81;21017;-67
2021/08/13 08:12:47;;;;;;;5.10;2.20;;;;;;;27.93;46.66;100179.10;1711670;81;20888;-68
2021/08/13 08:15:15;;;;;;;9.88;2.90;;;;;;;27.96;46.30;100176.06;1726641;81;21441;-67
2021/08/13 08:17:41;;;;;;;3.95;2.47;;;;;;;27.87;46.29;100176.61;1700223;82;20907;-68
2021/08/13 08:20:09;;;;;;;6.03;2.45;;;;;;;28.04;46.40;100173.34;1704868;82;20922;-68
2021/08/13 08:22:36;;;;;;;4.00;2.40;;;;;;;28.01;45.89;100184.44;1707847;82;21092;-67
2021/08/13 08:25:04;;;;;;;6.80;3.10;;;;;;;27.91;45.83;100174.41;1696032;82;20919;-68
2021/08/13 08:27:31;;;;;;;6.67;2.70;;;;;;;27.79;45.59;100175.27;1700994;83;20940;-68
2021/08/13 08:29:58;;;;;;;17.40;4.42;;;;;;;27.66;45.60;100172.59;1725594;81;20924;-68
2021/08/13 08:32:25;;;;;;;;;;;;;;;27.58;45.04;100179.84;1697001;82;21512;-67
2021/08/13 08:34:53;;;;;;;5.53;2.90;;;;;;;27.45;44.91;100173.17;1700455;82;20097;-67
2021/08/13 08:37:20;;;;;;;35.98;5.80;;;;;;;27.41;45.09;100170.48;1726765;81;20983;-67
2021/08/13 08:39:47;;;;;;;5.42;2.52;;;;;;;27.39;45.02;100169.84;1727876;81;20970;-67
2021/08/13 08:42:20;;;;;;;3.67;2.83;;;;;;;27.45;44.70;100166.47;1728591;81;20944;-67
2021/08/13 08:44:55;;;;;;;3.12;2.72;;;;;;;27.37;44.15;100162.97;1727067;82;20979;-67
2021/08/13 08:47:21;;;;;;;3.15;2.30;;;;;;;27.24;44.16;100160.80;1727453;82;21807;-68
2021/08/13 08:49:51;;;;;;;3.77;2.08;;;;;;;27.15;44.01;100164.47;1726921;82;21962;-67
2021/08/13 08:52:19;;;;;;;7.15;2.05;;;;;;;27.13;44.10;100161.12;1729841;81;20848;-67
2021/08/13 08:54:48;;;;;;;4.62;2.55;;;;;;;27.18;44.10;100165.50;1729359;81;21540;-67
2021/08/13 08:57:16;;;;;;;4.37;2.35;;;;;;;27.19;43.57;100163.14;1707930;82;20963;-68
2021/08/13 08:59:43;;;;;;;10.00;2.42;;;;;;;27.18;43.64;100164.16;1708159;82;21427;-68
2021/08/13 09:02:12;;;;;;;8.43;2.00;;;;;;;27.23;43.89;100161.81;1709750;81;21783;-67
2021/08/13 09:04:39;;;;;;;4.42;2.10;;;;;;;27.30;43.68;100164.14;1706659;82;21643;-68
2021/08/13 09:07:07;;;;;;;44.88;5.83;;;;;;;27.52;43.84;100168.45;1725933;82;20888;-69
2021/08/13 09:09:35;;;;;;;26.85;3.30;;;;;;;27.70;43.56;100170.43;1726669;81;20939;-68
2021/08/13 09:12:03;;;;;;;32.23;2.90;;;;;;;27.61;42.75;100164.73;1709599;82;21079;-68
2021/08/13 09:14:40;;;;;;;6.55;2.17;;;;;;;27.51;43.25;100165.45;1731394;81;21211;-68
2021/08/13 09:17:08;;;;;;;7.12;2.33;;;;;;;27.78;43.39;100161.50;1705795;82;20964;-68
2021/08/13 09:19:49;;;;;;;8.43;2.50;;;;;;;27.95;42.96;100171.69;1709124;82;20961;-68
2021/08/13 09:22:19;;;;;;;12.37;3.00;;;;;;;28.09;43.10;100174.98;1708453;82;21584;-67
2021/08/13 09:24:49;;;;;;;10.88;2.60;;;;;;;28.15;43.02;100180.15;1743429;81;21296;-68
2021/08/13 09:27:28;;;;;;;3.58;2.37;;;;;;;28.10;42.62;100172.64;1702578;82;20937;-69
2021/08/13 09:30:15;;;;;;;11.38;3.10;;;;;;;27.98;42.60;100174.02;1703308;82;20954;-64
2021/08/13 09:32:47;;;;;;;11.60;3.33;;;;;;;27.84;42.52;100169.73;1736065;81;20899;-65
2021/08/13 09:35:14;;;;;;;8.88;2.37;;;;;;;27.81;42.58;100170.56;1730332;81;20963;-66
2021/08/13 09:37:47;;;;;;;28.52;3.42;;;;;;;27.91;42.60;100171.72;1733217;81;21123;-67
2021/08/13 09:40:16;;;;;;;18.20;3.00;;;;;;;28.09;42.54;100176.32;1735908;81;21010;-67
2021/08/13 09:42:43;;;;;;;11.63;2.25;;;;;;;28.10;42.40;100172.64;1730485;81;20959;-67
2021/08/13 09:45:11;;;;;;;7.10;2.15;;;;;;;27.92;42.06;100172.04;1731789;81;21897;-66
2021/08/13 09:47:49;;;;;;;7.05;2.10;;;;;;;27.75;42.11;100169.37;1730387;81;20966;-67
2021/08/13 09:50:21;;;;;;;4.83;2.40;;;;;;;27.80;42.14;100168.91;1729977;81;21042;-67
2021/08/13 09:53:12;;;;;;;4.65;2.22;;;;;;;27.75;42.11;100170.72;1731969;81;20934;-65
2021/08/13 09:55:44;;;;;;;28.57;4.12;;;;;;;27.56;41.82;100169.30;1687280;83;21055;-66
2021/08/13 09:58:12;;;;;;;3.77;1.95;;;;;;;27.58;42.15;100170.45;1682342;83;20941;-66
2021/08/13 10:00:47;;;;;;;4.03;1.65;;;;;;;27.71;42.04;100173.44;1667474;84;20919;-66
2021/08/13 10:03:15;;;;;;;5.53;1.80;;;;;;;27.75;42.11;100166.70;1684118;83;21299;-66
2021/08/13 10:05:42;;;;;;;17.23;2.67;;;;;;;28.00;42.57;100172.01;1683957;83;20968;-67
2021/08/13 10:08:08;;;;;;;6.92;1.87;;;;;;;28.43;42.61;100164.41;1684860;83;21005;-66
2021/08/13 10:10:38;;;;;;;;;;;;;;;28.63;42.18;100166.16;1688687;83;21006;-66
2021/08/13 10:13:08;;;;;;;2.75;1.70;;;;;;;28.73;41.92;100160.84;1685310;83;20111;-67
2021/08/13 10:15:47;;;;;;;5.58;1.95;;;;;;;28.81;41.75;100155.09;1685682;83;21054;-67
2021/08/13 10:18:16;;;;;;;11.93;1.80;;;;;;;28.73;41.19;100149.27;1686560;83;20890;-66
2021/08/13 10:20:48;;;;;;;21.37;3.52;;;;;;;28.66;41.77;100141.09;1679654;83;22172;-69
2021/08/13 10:23:15;;;;;;;27.67;3.33;;;;;;;28.65;41.40;100134.06;1684234;83;21603;-66
2021/08/13 10:25:44;;;;;;;3.72;1.85;;;;;;;28.71;41.36;100136.03;1690330;82;21483;-67
2021/08/13 10:28:11;;;;;;;5.67;2.00;;;;;;;28.53;40.94;100135.48;1728399;81;21353;-68
2021/08/13 10:30:37;;;;;;;;;;;;;;;28.58;41.44;100133.10;1729253;81;20949;-66
2021/08/13 10:33:07;;;;;;;;;;;;;;;28.62;40.77;100138.94;1727059;81;20112;-68
2021/08/13 10:35:50;;;;;;;4.65;2.05;;;;;;;28.47;40.94;100137.55;1724892;81;20163;-68
2021/08/13 10:38:19;;;;;;;5.17;1.72;;;;;;;28.42;40.65;100135.87;1728737;81;20926;-67
2021/08/13 10:40:47;;;;;;;3.52;1.72;;;;;;;28.27;40.74;100131.27;1704732;81;21191;-68
2021/08/13 10:43:19;;;;;;;3.02;1.60;;;;;;;28.00;40.55;100126.38;1727522;81;20983;-68
2021/08/13 10:45:48;;;;;;;7.97;1.85;;;;;;;27.82;40.62;100130.16;1700536;82;20949;-69
2021/08/13 10:48:25;;;;;;;13.53;2.27;;;;;;;27.52;40.76;100125.55;1729210;81;20958;-67
2021/08/13 10:50:59;;;;;;;4.67;1.87;;;;;;;27.55;41.01;100125.20;1730501;81;20906;-67
2021/08/13 10:53:35;;;;;;;3.37;1.95;;;;;;;27.58;41.34;100121.66;1725236;81;21053;-67
2021/08/13 10:56:06;;;;;;;3.72;1.40;;;;;;;27.60;40.60;100112.11;1706548;82;20981;-66
2021/08/13 10:58:43;;;;;;;13.45;2.20;;;;;;;27.74;40.52;100113.23;1724883;82;21028;-67
2021/08/13 11:01:19;;;;;;;14.47;2.37;;;;;;;27.80;40.59;100114.73;1724218;81;20938;-66
2021/08/13 11:04:00;;;;;;;25.57;2.72;;;;;;;27.90;40.80;100113.20;1729630;81;20919;-68
2021/08/13 11:06:40;;;;;;;4.53;2.05;;;;;;;28.04;40.59;100109.77;1728748;81;21501;-67
2021/08/13 11:09:13;;;;;;;56.98;5.95;;;;;;;28.07;40.47;100103.20;1729601;81;20973;-67
2021/08/13 11:11:57;;;;;;;5.08;2.15;;;;;;;28.11;40.43;100112.56;1715992;81;21416;-66
2021/08/13 11:14:28;;;;;;;2.02;1.67;;;;;;;28.02;40.34;100105.58;1714995;83;20871;-67
2021/08/13 11:16:56;;;;;;;109.00;11.25;;;;;;;27.87;40.08;100105.50;1717298;82;20950;-67
2021/08/13 11:19:24;;;;;;;15.23;2.70;;;;;;;27.80;40.37;100110.71;1719189;81;21012;-66
2021/08/13 11:21:55;;;;;;;40.00;4.75;;;;;;;27.82;40.27;100110.03;1708390;82;20954;-66
2021/08/13 11:24:28;;;;;;;21.27;2.30;;;;;;;27.96;40.31;100111.66;1695147;82;21436;-67
2021/08/13 11:27:04;;;;;;;17.15;3.08;;;;;;;28.07;40.42;100117.45;1720359;81;21507;-65
2021/08/13 11:29:38;;;;;;;12.23;2.50;;;;;;;28.18;40.25;100108.17;1724260;82;20946;-65
2021/08/13 11:32:18;;;;;;;15.83;3.20;;;;;;;28.24;40.20;100107.45;1720407;82;22084;-66